Shin Yu Maru — JD3290 — position and weather

sailwx.info

Track history (hours):
 
Tides and Currents Weather Stations Pressure Air Temp Water Temp Dewpoint Dewpoint Depression Visibility Wind Speed Wind Dir Waves Ship Positions

Shin Yu Maru

Last reported at 2017-Sep-16 11:57 UTC. Time now 2017-Sep-22 00:41 UTC.
Position N 34°41' E 134°50'.

Length 74 m; draft 4.7 m.

Type: Cargo ship. MMSI: 431003256.

Date/timePositionNaut miles runAvg speedWind from/ knotsBaromVisibWave heightAir tempDewpointWater temp
2017-Sep-16 11:57N 34°41' E 134°50'512.1
2017-Sep-16 11:30N 34°37' E 134°54'714.6
2017-Sep-16 11:00N 34°36' E 135°03'1612.7
2017-Sep-16 09:45N 34°21' E 135°01'513.7
2017-Sep-16 09:22N 34°16' E 134°59'514.5
2017-Sep-16 09:01N 34°10' E 135°00'22710.5
2017-Sep-15 11:25N 34°58' E 139°30'511.6
2017-Sep-15 11:00N 35°02' E 139°34'713.9
2017-Sep-15 10:30N 35°06' E 139°41'714.0
2017-Sep-15 10:01N 35°12' E 139°45'612.6
2017-Sep-15 09:31N 35°18' E 139°44'612.8
2017-Sep-15 09:00N 35°24' E 139°43'713.3
2017-Sep-15 08:30N 35°28' E 139°49'1312.9
2017-Sep-15 07:32N 35°38' E 139°58'112.5
2017-Sep-15 07:29N 35°39' E 139°58'4 0.1
2017-Sep-13 16:51N 35°35' E 139°58'412.5
2017-Sep-13 16:30N 35°32' E 139°55'612.6
2017-Sep-13 16:00N 35°27' E 139°50'612.3
2017-Sep-13 15:30N 35°22' E 139°45'611.2
2017-Sep-13 14:58N 35°16' E 139°47'612.2
2017-Sep-13 14:30N 35°10' E 139°47'713.4
2017-Sep-13 14:00N 35°05' E 139°42'713.6
2017-Sep-13 13:30N 35°01' E 139°36'23311.1
2017-Sep-12 16:31N 34°12' E 134°59'013.3
2017-Sep-12 16:30N 34°13' E 134°59'812.2
2017-Sep-12 15:51N 34°21' E 134°59'512.9
2017-Sep-12 15:30N 34°25' E 134°60'612.5
2017-Sep-12 15:00N 34°31' E 135°01'510.3
2017-Sep-12 14:30N 34°36' E 135°02'13 0.6
2017-Sep-11 17:41N 34°41' E 134°47'412.4
2017-Sep-11 17:24N 34°39' E 134°51'512.0
2017-Sep-11 17:00N 34°37' E 134°56'713.2
2017-Sep-11 16:30N 34°36' E 135°04'612.1
2017-Sep-11 16:00N 34°36' E 135°12'612.9
2017-Sep-11 15:31N 34°37' E 135°19'612.1
2017-Sep-11 15:00N 34°39' E 135°26'1 0.3
2017-Sep-11 11:04N 34°38' E 135°28'0 0.5
2017-Sep-11 10:59N 34°38' E 135°28'0 0.0
2017-Sep-10 23:38N 34°38' E 135°28'0 0.2
2017-Sep-10 23:23N 34°38' E 135°28'0 1.1
2017-Sep-10 23:00N 34°39' E 135°27'3 6.7
2017-Sep-10 22:30N 34°38' E 135°23'1 1.7
2017-Sep-10 21:59N 34°38' E 135°23'0 0.0
2017-Sep-10 21:29N 34°38' E 135°23'0 0.0
2017-Sep-10 20:59N 34°38' E 135°23'0 0.0
2017-Sep-10 20:29N 34°38' E 135°23'0 0.1
2017-Sep-10 19:53N 34°38' E 135°23'0 0.0
2017-Sep-10 19:29N 34°38' E 135°23'0 0.0
2017-Sep-10 18:47N 34°37' E 135°23'0 0.0
2017-Sep-10 18:29N 34°37' E 135°23'0 0.0
2017-Sep-10 17:53N 34°37' E 135°23'0 0.0
2017-Sep-10 17:23N 34°37' E 135°23'0 0.0
2017-Sep-10 16:59N 34°37' E 135°23'0 0.0
2017-Sep-10 16:29N 34°37' E 135°23'0 0.0
2017-Sep-10 15:53N 34°37' E 135°23'0 0.0
2017-Sep-10 15:23N 34°37' E 135°23'0 0.0
2017-Sep-10 14:59N 34°37' E 135°23'0 0.0
2017-Sep-10 13:05N 34°37' E 135°23'0 0.5
2017-Sep-10 12:59N 34°37' E 135°23'0 0.1
2017-Sep-10 12:29N 34°37' E 135°23'0 0.4
2017-Sep-10 12:00N 34°37' E 135°23'611.5
2017-Sep-10 11:30N 34°34' E 135°18'1712.8
2017-Sep-10 10:09N 34°21' E 135°04'612.4
2017-Sep-10 09:40N 34°16' E 134°59'211.2
2017-Sep-10 09:30N 34°14' E 134°60'713.0
2017-Sep-10 09:00N 34°08' E 135°01'713.6
2017-Sep-10 08:30N 34°01' E 135°02'20910.8
2017-Sep-09 13:13N 34°47' E 139°09'412.5
2017-Sep-09 12:55N 34°50' E 139°12'1311.9
2017-Sep-09 11:50N 34°57' E 139°25'410.3
2017-Sep-09 11:30N 34°59' E 139°28'511.1
2017-Sep-09 11:00N 35°02' E 139°34'611.6
2017-Sep-09 10:30N 35°05' E 139°40'611.8
2017-Sep-09 10:00N 35°10' E 139°45'612.0
2017-Sep-09 09:30N 35°16' E 139°46'612.2
2017-Sep-09 09:00N 35°21' E 139°42'611.6
2017-Sep-09 08:30N 35°26' E 139°45'612.6
2017-Sep-09 08:00N 35°30' E 139°51'1012.4
2017-Sep-09 07:13N 35°38' E 139°59'  
2017-Sep-07 01:53N 35°37' E 139°58'2 0.8
2017-Sep-06 23:44N 35°35' E 139°57'312.6
2017-Sep-06 23:29N 35°33' E 139°55'612.3
2017-Sep-06 23:00N 35°28' E 139°51'612.3
2017-Sep-06 22:30N 35°23' E 139°46'611.0
2017-Sep-06 22:00N 35°18' E 139°45'611.5
2017-Sep-06 21:30N 35°12' E 139°47'612.8
2017-Sep-06 21:00N 35°06' E 139°45'  
Track history (hours):
 
Tides and Currents Weather Stations Pressure Air Temp Water Temp Dewpoint Dewpoint Depression Visibility Wind Speed Wind Dir Waves Ship Positions

Shin Yu Maru

Last reported at 2017-Sep-16 11:57 UTC. Time now 2017-Sep-22 00:41 UTC.
Position N 34°41' E 134°50'.

Length 74 m; draft 4.7 m.

Type: Cargo ship. MMSI: 431003256.

Date/timePositionNaut miles runAvg speedWind from/ knotsBaromVisibWave heightAir tempDewpointWater temp
2017-Sep-16 11:57N 34°41' E 134°50'512.1
2017-Sep-16 11:30N 34°37' E 134°54'714.6
2017-Sep-16 11:00N 34°36' E 135°03'1612.7
2017-Sep-16 09:45N 34°21' E 135°01'513.7
2017-Sep-16 09:22N 34°16' E 134°59'514.5
2017-Sep-16 09:01N 34°10' E 135°00'22710.5
2017-Sep-15 11:25N 34°58' E 139°30'511.6
2017-Sep-15 11:00N 35°02' E 139°34'713.9
2017-Sep-15 10:30N 35°06' E 139°41'714.0
2017-Sep-15 10:01N 35°12' E 139°45'612.6
2017-Sep-15 09:31N 35°18' E 139°44'612.8
2017-Sep-15 09:00N 35°24' E 139°43'713.3
2017-Sep-15 08:30N 35°28' E 139°49'1312.9
2017-Sep-15 07:32N 35°38' E 139°58'112.5
2017-Sep-15 07:29N 35°39' E 139°58'4 0.1
2017-Sep-13 16:51N 35°35' E 139°58'412.5
2017-Sep-13 16:30N 35°32' E 139°55'612.6
2017-Sep-13 16:00N 35°27' E 139°50'612.3
2017-Sep-13 15:30N 35°22' E 139°45'611.2
2017-Sep-13 14:58N 35°16' E 139°47'612.2
2017-Sep-13 14:30N 35°10' E 139°47'713.4
2017-Sep-13 14:00N 35°05' E 139°42'713.6
2017-Sep-13 13:30N 35°01' E 139°36'23311.1
2017-Sep-12 16:31N 34°12' E 134°59'013.3
2017-Sep-12 16:30N 34°13' E 134°59'812.2
2017-Sep-12 15:51N 34°21' E 134°59'512.9
2017-Sep-12 15:30N 34°25' E 134°60'612.5
2017-Sep-12 15:00N 34°31' E 135°01'510.3
2017-Sep-12 14:30N 34°36' E 135°02'13 0.6
2017-Sep-11 17:41N 34°41' E 134°47'412.4
2017-Sep-11 17:24N 34°39' E 134°51'512.0
2017-Sep-11 17:00N 34°37' E 134°56'713.2
2017-Sep-11 16:30N 34°36' E 135°04'612.1
2017-Sep-11 16:00N 34°36' E 135°12'612.9
2017-Sep-11 15:31N 34°37' E 135°19'612.1
2017-Sep-11 15:00N 34°39' E 135°26'1 0.3
2017-Sep-11 11:04N 34°38' E 135°28'0 0.5
2017-Sep-11 10:59N 34°38' E 135°28'0 0.0
2017-Sep-10 23:38N 34°38' E 135°28'0 0.2
2017-Sep-10 23:23N 34°38' E 135°28'0 1.1
2017-Sep-10 23:00N 34°39' E 135°27'3 6.7
2017-Sep-10 22:30N 34°38' E 135°23'1 1.7
2017-Sep-10 21:59N 34°38' E 135°23'0 0.0
2017-Sep-10 21:29N 34°38' E 135°23'0 0.0
2017-Sep-10 20:59N 34°38' E 135°23'0 0.0
2017-Sep-10 20:29N 34°38' E 135°23'0 0.1
2017-Sep-10 19:53N 34°38' E 135°23'0 0.0
2017-Sep-10 19:29N 34°38' E 135°23'0 0.0
2017-Sep-10 18:47N 34°37' E 135°23'0 0.0
2017-Sep-10 18:29N 34°37' E 135°23'0 0.0
2017-Sep-10 17:53N 34°37' E 135°23'0 0.0
2017-Sep-10 17:23N 34°37' E 135°23'0 0.0
2017-Sep-10 16:59N 34°37' E 135°23'0 0.0
2017-Sep-10 16:29N 34°37' E 135°23'0 0.0
2017-Sep-10 15:53N 34°37' E 135°23'0 0.0
2017-Sep-10 15:23N 34°37' E 135°23'0 0.0
2017-Sep-10 14:59N 34°37' E 135°23'0 0.0
2017-Sep-10 13:05N 34°37' E 135°23'0 0.5
2017-Sep-10 12:59N 34°37' E 135°23'0 0.1
2017-Sep-10 12:29N 34°37' E 135°23'0 0.4
2017-Sep-10 12:00N 34°37' E 135°23'611.5
2017-Sep-10 11:30N 34°34' E 135°18'1712.8
2017-Sep-10 10:09N 34°21' E 135°04'612.4
2017-Sep-10 09:40N 34°16' E 134°59'211.2
2017-Sep-10 09:30N 34°14' E 134°60'713.0
2017-Sep-10 09:00N 34°08' E 135°01'713.6
2017-Sep-10 08:30N 34°01' E 135°02'20910.8
2017-Sep-09 13:13N 34°47' E 139°09'412.5
2017-Sep-09 12:55N 34°50' E 139°12'1311.9
2017-Sep-09 11:50N 34°57' E 139°25'410.3
2017-Sep-09 11:30N 34°59' E 139°28'511.1
2017-Sep-09 11:00N 35°02' E 139°34'611.6
2017-Sep-09 10:30N 35°05' E 139°40'611.8
2017-Sep-09 10:00N 35°10' E 139°45'612.0
2017-Sep-09 09:30N 35°16' E 139°46'612.2
2017-Sep-09 09:00N 35°21' E 139°42'611.6
2017-Sep-09 08:30N 35°26' E 139°45'612.6
2017-Sep-09 08:00N 35°30' E 139°51'1012.4
2017-Sep-09 07:13N 35°38' E 139°59'  
2017-Sep-07 01:53N 35°37' E 139°58'2 0.8
2017-Sep-06 23:44N 35°35' E 139°57'312.6
2017-Sep-06 23:29N 35°33' E 139°55'612.3
2017-Sep-06 23:00N 35°28' E 139°51'612.3
2017-Sep-06 22:30N 35°23' E 139°46'611.0
2017-Sep-06 22:00N 35°18' E 139°45'611.5
2017-Sep-06 21:30N 35°12' E 139°47'612.8
2017-Sep-06 21:00N 35°06' E 139°45'  

Dump ship's entire track history